Time;durP1;ratioP1;P1;durP2;ratioP2;P2;SDS_P1;SDS_P2;PMS_P1;PMS_P2;Temp;Humidity;BMP_temperature;BMP_pressure;BME280_temperature;BME280_humidity;BME280_pressure;Samples;Min_cycle;Max_cycle;Signal;HPM_P1;HPM_P2
2022/03/30 00:01:58;;;;;;;21.50;12.97;;;12.40;88.90;;;;;;6078916;23;20384;-88
2022/03/30 00:04:36;;;;;;;;;;;;;;;;;;;;;
2022/03/30 00:07:15;;;;;;;20.23;12.30;;;12.30;90.00;;;;;;6104542;23;20424;-87
2022/03/30 00:09:49;;;;;;;20.17;12.33;;;12.30;89.70;;;;;;6118131;23;20375;-87
2022/03/30 00:12:30;;;;;;;19.87;12.80;;;12.30;90.00;;;;;;6122957;23;20421;-87
2022/03/30 00:15:01;;;;;;;20.90;12.90;;;12.30;90.10;;;;;;6110605;23;20387;-86
2022/03/30 00:17:39;;;;;;;21.70;13.30;;;12.30;90.10;;;;;;6122021;23;20444;-85
2022/03/30 00:20:07;;;;;;;29.70;14.87;;;12.40;90.10;;;;;;6109225;23;20424;-86
2022/03/30 00:22:51;;;;;;;19.20;13.03;;;12.40;90.10;;;;;;6107434;23;20466;-87
2022/03/30 00:25:20;;;;;;;20.43;13.40;;;12.30;90.10;;;;;;6105266;23;20434;-87
2022/03/30 00:28:04;;;;;;;23.50;13.63;;;12.30;90.20;;;;;;6103303;23;20779;-87
2022/03/30 00:30:34;;;;;;;22.80;13.73;;;12.30;90.40;;;;;;6107251;23;20860;-87
2022/03/30 00:33:11;;;;;;;25.23;14.17;;;12.30;90.50;;;;;;6107134;23;20463;-87
2022/03/30 00:35:46;;;;;;;24.50;14.97;;;12.30;90.70;;;;;;6104117;23;20458;-87
2022/03/30 00:38:22;;;;;;;24.53;14.10;;;12.30;90.80;;;;;;6103608;23;20395;-85
2022/03/30 00:40:52;;;;;;;22.00;13.00;;;12.30;90.70;;;;;;6102409;23;20423;-85
2022/03/30 00:43:27;;;;;;;22.90;13.13;;;12.30;90.90;;;;;;6103062;23;20419;-85
2022/03/30 00:46:13;;;;;;;21.70;14.47;;;12.30;90.90;;;;;;6103334;23;20401;-87
2022/03/30 00:48:49;;;;;;;24.17;13.87;;;12.40;90.90;;;;;;6104673;23;20839;-86
2022/03/30 01:11:54;;;;;;;24.37;13.77;;;12.50;91.50;;;;;;5986437;24;20395;-85
2022/03/30 01:45:37;;;;;;;22.57;13.67;;;12.70;92.30;;;;;;5943353;23;20377;-86
2022/03/30 01:52:30;;;;;;;23.60;15.30;;;12.80;92.20;;;;;;5826700;24;20406;-88
2022/03/30 02:37:08;;;;;;;20.47;14.37;;;13.00;93.60;;;;;;5940234;24;20501;-87
2022/03/30 02:51:30;;;;;;;;;;;;;;;;;;;;;
2022/03/30 03:04:54;;;;;;;21.63;13.87;;;12.80;94.30;;;;;;6006197;23;20497;-87
2022/03/30 03:15:04;;;;;;;23.30;14.40;;;12.70;94.60;;;;;;5943676;24;20409;-85
2022/03/30 03:58:10;;;;;;;;;;;;;;;;;;;;;
2022/03/30 04:36:17;;;;;;;;;;;;;;;;;;;;;
2022/03/30 04:43:06;;;;;;;25.43;14.60;;;12.70;98.70;;;;;;6013720;23;20391;-87
2022/03/30 05:45:55;;;;;;;27.63;14.00;;;11.70;99.90;;;;;;6072320;23;20417;-87
2022/03/30 05:49:02;;;;;;;22.00;14.60;;;11.80;99.90;;;;;;6081579;23;20418;-86
2022/03/30 05:55:22;;;;;;;27.93;15.90;;;11.80;99.90;;;;;;6016555;23;20416;-88
2022/03/30 05:58:13;;;;;;;30.80;15.27;;;11.70;99.90;;;;;;6059630;23;20487;-87
2022/03/30 06:15:57;;;;;;;29.83;15.77;;;11.50;99.90;;;;;;5936626;23;20427;-88
2022/03/30 06:58:06;;;;;;;29.03;16.77;;;11.70;99.90;;;;;;5932148;24;20516;-86
2022/03/30 07:01:15;;;;;;;22.67;17.00;;;11.70;99.90;;;;;;5968050;24;20427;-88
2022/03/30 07:17:54;;;;;;;35.33;18.10;;;11.90;99.90;;;;;;6011906;23;20449;-85
2022/03/30 07:20:23;;;;;;;35.03;17.83;;;11.90;99.90;;;;;;6104380;23;20451;-87
2022/03/30 07:22:51;;;;;;;29.77;17.97;;;11.80;99.90;;;;;;6114324;23;20412;-86
2022/03/30 07:25:21;;;;;;;31.40;16.20;;;11.90;99.90;;;;;;6112114;23;20493;-87
2022/03/30 07:27:53;;;;;;;33.10;15.37;;;11.90;99.90;;;;;;6107683;23;20492;-87
2022/03/30 07:30:24;;;;;;;36.03;16.27;;;11.90;99.90;;;;;;6108074;23;20490;-85
2022/03/30 07:32:54;;;;;;;25.40;14.67;;;11.80;99.90;;;;;;6108170;23;20411;-85
2022/03/30 07:35:27;;;;;;;37.23;15.70;;;11.90;99.90;;;;;;6109309;23;20401;-85
2022/03/30 07:38:00;;;;;;;28.33;14.27;;;12.00;99.90;;;;;;6117201;23;20427;-84
2022/03/30 07:40:31;;;;;;;27.23;15.30;;;12.00;99.90;;;;;;6114957;23;20379;-84
2022/03/30 07:43:10;;;;;;;25.20;15.13;;;11.90;99.90;;;;;;6118910;23;20455;-83
2022/03/30 07:45:39;;;;;;;27.70;14.33;;;12.00;99.90;;;;;;6118492;23;20424;-84
2022/03/30 07:48:10;;;;;;;32.40;15.80;;;12.00;99.90;;;;;;6116217;23;20435;-84
2022/03/30 07:50:48;;;;;;;25.17;14.33;;;12.00;99.90;;;;;;6114659;23;20500;-85
2022/03/30 07:53:15;;;;;;;26.63;14.63;;;12.00;99.90;;;;;;6122459;23;20355;-84
2022/03/30 07:55:46;;;;;;;32.20;15.33;;;11.90;99.90;;;;;;6115946;23;20730;-84
2022/03/30 07:58:16;;;;;;;26.63;15.87;;;11.90;99.90;;;;;;6117444;23;20408;-84
2022/03/30 08:01:26;;;;;;;48.33;16.77;;;12.00;99.90;;;;;;6125362;23;20393;-86
2022/03/30 08:07:51;;;;;;;;;;;;;;;;;;;;;
2022/03/30 08:10:21;;;;;;;34.13;15.47;;;12.10;99.90;;;;;;6120829;23;20382;-85
2022/03/30 08:12:58;;;;;;;22.07;14.70;;;12.10;99.90;;;;;;6114808;23;20379;-85
2022/03/30 08:15:31;;;;;;;25.80;14.90;;;12.10;99.90;;;;;;6118889;23;20401;-83
2022/03/30 08:18:12;;;;;;;33.97;15.10;;;12.20;99.90;;;;;;6118972;23;20459;-85
2022/03/30 08:24:19;;;;;;;;;;;;;;;;;;;;;
2022/03/30 08:29:35;;;;;;;31.17;13.70;;;12.30;99.90;;;;;;6108594;23;20403;-86
2022/03/30 08:36:05;;;;;;;;;;;;;;;;;;;;;
2022/03/30 08:38:48;;;;;;;26.63;15.10;;;12.30;99.90;;;;;;5991671;23;20491;-84
2022/03/30 08:41:47;;;;;;;25.83;13.83;;;12.10;99.90;;;;;;6088693;23;20421;-85
2022/03/30 08:47:13;;;;;;;29.47;15.90;;;12.10;99.90;;;;;;6105852;23;20705;-86
2022/03/30 08:49:47;;;;;;;25.23;14.13;;;12.20;99.90;;;;;;6116643;23;20600;-86
2022/03/30 08:55:35;;;;;;;27.23;14.63;;;12.20;99.90;;;;;;6081907;23;20426;-86
2022/03/30 08:58:08;;;;;;;23.87;12.77;;;12.30;99.90;;;;;;6080863;23;20467;-86
2022/03/30 09:00:41;;;;;;;22.90;13.47;;;12.30;99.90;;;;;;6077705;23;20392;-85
2022/03/30 09:03:14;;;;;;;22.97;13.37;;;12.30;99.90;;;;;;6077493;23;20441;-85
2022/03/30 09:06:04;;;;;;;27.50;13.07;;;12.40;99.90;;;;;;6107488;23;20391;-83
2022/03/30 09:08:53;;;;;;;27.43;13.10;;;12.40;99.90;;;;;;6110490;23;20444;-84
2022/03/30 09:11:45;;;;;;;26.20;13.43;;;12.40;99.90;;;;;;6108368;23;20405;-85
2022/03/30 09:14:24;;;;;;;26.87;12.47;;;12.40;99.90;;;;;;6107410;23;20379;-85
2022/03/30 09:17:03;;;;;;;32.40;13.77;;;12.30;99.90;;;;;;6107223;23;20356;-84
2022/03/30 09:19:42;;;;;;;26.30;12.40;;;12.30;99.90;;;;;;6106932;23;20440;-85
2022/03/30 09:22:28;;;;;;;23.90;12.13;;;12.30;99.90;;;;;;6107063;23;20409;-85
2022/03/30 09:25:02;;;;;;;24.47;13.03;;;12.40;99.90;;;;;;6094986;23;20414;-85
2022/03/30 09:27:44;;;;;;;24.73;13.20;;;12.40;99.90;;;;;;6124196;23;20402;-86
2022/03/30 09:30:34;;;;;;;26.53;13.40;;;12.40;99.90;;;;;;6121254;23;20417;-87
2022/03/30 09:36:38;;;;;;;24.40;12.00;;;12.40;99.90;;;;;;6108542;23;20413;-86
2022/03/30 09:39:08;;;;;;;27.80;12.43;;;12.60;99.90;;;;;;6111260;23;20524;-85
2022/03/30 09:41:53;;;;;;;32.03;12.90;;;12.60;99.90;;;;;;6113802;23;20423;-87
2022/03/30 09:44:22;;;;;;;20.50;12.53;;;12.50;99.90;;;;;;6112101;23;20406;-86
2022/03/30 09:47:05;;;;;;;28.17;12.63;;;12.50;99.90;;;;;;6108309;23;20375;-84
2022/03/30 09:49:40;;;;;;;22.60;11.70;;;12.50;99.90;;;;;;6110612;23;20436;-85
2022/03/30 09:52:15;;;;;;;21.17;13.90;;;12.50;99.90;;;;;;6113925;23;20423;-86
2022/03/30 09:54:47;;;;;;;20.73;12.10;;;12.60;99.90;;;;;;6117113;23;20391;-86
2022/03/30 09:57:23;;;;;;;25.67;12.70;;;12.60;99.90;;;;;;6110673;23;20421;-86
2022/03/30 09:59:58;;;;;;;26.80;12.60;;;12.60;99.90;;;;;;6110535;23;20393;-86
2022/03/30 10:02:26;;;;;;;25.37;13.80;;;12.60;99.90;;;;;;6110730;23;20487;-86
2022/03/30 10:04:56;;;;;;;24.70;12.43;;;12.60;99.90;;;;;;6108353;23;20416;-86
2022/03/30 10:07:24;;;;;;;19.03;11.03;;;12.60;99.90;;;;;;6107523;23;20536;-86
2022/03/30 10:09:52;;;;;;;28.40;11.73;;;12.60;99.90;;;;;;6110221;23;20417;-85
2022/03/30 10:12:23;;;;;;;24.40;13.40;;;12.60;99.90;;;;;;6113338;23;20448;-86
2022/03/30 10:14:51;;;;;;;21.63;11.23;;;12.60;99.90;;;;;;6115721;23;20380;-87
2022/03/30 10:17:19;;;;;;;20.33;10.43;;;12.70;99.90;;;;;;6119007;23;20425;-86
2022/03/30 10:19:47;;;;;;;20.10;11.80;;;12.80;99.90;;;;;;6122359;23;20418;-84
2022/03/30 10:22:35;;;;;;;17.93;11.00;;;12.90;99.90;;;;;;6123815;23;20396;-86
2022/03/30 10:25:26;;;;;;;20.77;11.17;;;12.90;99.90;;;;;;6101529;23;20492;-87
2022/03/30 10:27:57;;;;;;;17.13;10.40;;;13.20;99.90;;;;;;6116008;23;20425;-86
2022/03/30 10:30:30;;;;;;;19.77;10.70;;;13.10;99.90;;;;;;6114668;23;20496;-86
2022/03/30 10:32:59;;;;;;;31.97;11.90;;;13.30;99.90;;;;;;6108985;23;20382;-87
2022/03/30 10:35:41;;;;;;;20.30;10.17;;;13.50;99.90;;;;;;6106719;23;20436;-86
2022/03/30 10:38:09;;;;;;;25.70;11.00;;;13.70;99.90;;;;;;6106995;23;20449;-87
2022/03/30 10:40:37;;;;;;;18.83;10.57;;;13.60;99.90;;;;;;6107579;23;20421;-84
2022/03/30 10:43:08;;;;;;;23.10;11.30;;;13.70;99.90;;;;;;6107346;23;20428;-85
2022/03/30 10:45:44;;;;;;;22.80;12.10;;;13.80;99.90;;;;;;6112631;23;20391;-83
2022/03/30 10:48:15;;;;;;;22.40;10.90;;;13.60;99.90;;;;;;6108467;23;20483;-85
2022/03/30 10:50:44;;;;;;;20.77;12.40;;;13.40;99.90;;;;;;6108256;23;20816;-87
2022/03/30 10:53:42;;;;;;;21.67;12.37;;;13.70;99.90;;;;;;6116024;23;20399;-86
2022/03/30 10:56:32;;;;;;;25.27;12.67;;;13.70;99.90;;;;;;6119882;23;20413;-84
2022/03/30 10:59:17;;;;;;;25.03;11.07;;;13.80;99.90;;;;;;6110615;23;20872;-86
2022/03/30 11:01:46;;;;;;;22.47;12.03;;;13.70;99.90;;;;;;6123095;23;20359;-86
2022/03/30 11:04:20;;;;;;;18.70;11.70;;;13.90;99.90;;;;;;6121163;23;20421;-85
2022/03/30 11:06:50;;;;;;;28.37;12.50;;;13.70;99.90;;;;;;6115345;23;20440;-86
2022/03/30 11:09:28;;;;;;;16.03;10.20;;;13.80;99.90;;;;;;6121600;23;20392;-87
2022/03/30 11:12:00;;;;;;;21.90;11.50;;;14.00;99.90;;;;;;6112291;23;20427;-84
2022/03/30 11:14:34;;;;;;;18.83;11.73;;;14.00;99.90;;;;;;6109359;23;20444;-86
2022/03/30 11:17:10;;;;;;;22.43;11.33;;;13.90;99.90;;;;;;6111342;23;20394;-87
2022/03/30 11:20:14;;;;;;;23.87;11.13;;;13.70;99.90;;;;;;6107666;23;20448;-87
2022/03/30 11:22:46;;;;;;;24.00;11.50;;;13.70;99.90;;;;;;6023945;23;20495;-87
2022/03/30 11:25:18;;;;;;;18.10;10.10;;;13.50;99.90;;;;;;6098786;23;20437;-87
2022/03/30 11:27:45;;;;;;;24.80;9.73;;;13.50;99.90;;;;;;6109755;23;20432;-87
2022/03/30 11:30:49;;;;;;;19.40;11.63;;;13.70;99.90;;;;;;6110407;23;20379;-86
2022/03/30 11:33:26;;;;;;;20.50;10.87;;;13.70;99.90;;;;;;6045951;23;20397;-85
2022/03/30 11:36:10;;;;;;;22.80;11.00;;;13.70;99.90;;;;;;6117289;23;20447;-85
2022/03/30 11:41:37;;;;;;;25.97;10.77;;;12.80;99.90;;;;;;6109854;23;20395;-85
2022/03/30 11:50:58;;;;;;;14.50;8.77;;;12.90;99.90;;;;;;6103861;23;20416;-86
2022/03/30 11:54:01;;;;;;;30.63;14.90;;;13.10;99.90;;;;;;6108463;23;20390;-86
2022/03/30 12:19:22;;;;;;;21.33;14.30;;;13.60;99.90;;;;;;6108341;23;20460;-86
2022/03/30 12:26:05;;;;;;;24.93;12.83;;;13.80;99.90;;;;;;6111639;23;20488;-85
2022/03/30 12:29:14;;;;;;;22.53;14.63;;;14.00;99.90;;;;;;6049676;23;20887;-86
2022/03/30 12:39:14;;;;;;;;;;;;;;;;;;;;;
2022/03/30 12:58:24;;;;;;;12.73;9.10;;;12.70;99.90;;;;;;6100910;23;20452;-87
2022/03/30 13:00:54;;;;;;;11.07;8.60;;;12.40;99.90;;;;;;6106876;23;20471;-85
2022/03/30 13:03:24;;;;;;;12.33;9.87;;;12.20;99.90;;;;;;6106574;23;20839;-86
2022/03/30 13:06:04;;;;;;;12.43;9.57;;;12.00;99.90;;;;;;6108368;23;20433;-85
2022/03/30 13:08:31;;;;;;;13.87;10.73;;;12.00;99.90;;;;;;6108231;23;20433;-86
2022/03/30 13:11:00;;;;;;;11.83;8.57;;;12.10;99.90;;;;;;6108198;23;20395;-85
2022/03/30 13:13:36;;;;;;;10.67;8.73;;;12.00;99.90;;;;;;6117026;23;20408;-87
2022/03/30 13:16:07;;;;;;;10.40;7.77;;;12.00;99.90;;;;;;6111114;23;20746;-84
2022/03/30 13:18:36;;;;;;;8.70;7.77;;;11.90;99.90;;;;;;6109706;23;20436;-86
2022/03/30 13:21:35;;;;;;;8.90;7.23;;;12.00;99.90;;;;;;6106676;23;20417;-87
2022/03/30 13:24:11;;;;;;;11.03;6.43;;;12.10;99.90;;;;;;6106535;23;20482;-86
2022/03/30 13:26:44;;;;;;;8.20;6.90;;;12.20;99.90;;;;;;6107223;23;20430;-86
2022/03/30 13:29:15;;;;;;;9.80;7.30;;;12.10;99.90;;;;;;6107587;23;20435;-86
2022/03/30 13:31:59;;;;;;;7.60;6.30;;;12.30;99.90;;;;;;6111514;23;20393;-87
2022/03/30 13:34:27;;;;;;;8.20;6.20;;;12.40;99.90;;;;;;6112483;23;20352;-86
2022/03/30 13:36:57;;;;;;;7.80;6.00;;;12.40;99.90;;;;;;6112315;23;20399;-86
2022/03/30 13:39:37;;;;;;;6.20;4.33;;;12.60;99.90;;;;;;6114370;23;20426;-86
2022/03/30 13:42:09;;;;;;;7.50;6.17;;;12.50;99.90;;;;;;6121031;23;20387;-87
2022/03/30 13:44:49;;;;;;;6.90;5.43;;;12.40;99.90;;;;;;6121066;23;20367;-86
2022/03/30 13:47:21;;;;;;;9.37;7.30;;;12.30;99.90;;;;;;6116308;23;20405;-85
2022/03/30 13:49:54;;;;;;;10.87;6.97;;;12.20;99.90;;;;;;6115919;23;20378;-87
2022/03/30 13:52:50;;;;;;;10.53;7.67;;;12.20;99.90;;;;;;6114131;23;20428;-84
2022/03/30 13:58:55;;;;;;;10.23;8.30;;;12.20;99.90;;;;;;6102534;23;20443;-87
2022/03/30 14:17:36;;;;;;;8.23;6.90;;;12.60;99.90;;;;;;6114180;23;20444;-86
2022/03/30 14:20:12;;;;;;;9.10;7.17;;;12.60;99.90;;;;;;6087789;23;20420;-87
2022/03/30 14:26:41;;;;;;;8.97;7.10;;;12.50;99.90;;;;;;6087623;23;20422;-87
2022/03/30 14:29:27;;;;;;;8.77;7.23;;;12.30;99.90;;;;;;5913152;24;20439;-87
2022/03/30 14:32:16;;;;;;;;;;;;;;;;;;;;;
2022/03/30 14:35:29;;;;;;;11.93;7.93;;;12.10;99.90;;;;;;6081965;23;20401;-87
2022/03/30 14:40:51;;;;;;;11.60;7.87;;;12.00;99.90;;;;;;6077639;23;20510;-87
2022/03/30 14:44:04;;;;;;;9.73;8.10;;;12.10;99.90;;;;;;6086588;23;20485;-88
2022/03/30 14:47:12;;;;;;;9.20;6.87;;;12.20;99.90;;;;;;5849123;24;20421;-86
2022/03/30 14:50:09;;;;;;;11.20;8.13;;;12.30;99.90;;;;;;5970066;24;20475;-86
2022/03/30 14:52:55;;;;;;;10.53;7.93;;;12.30;99.90;;;;;;6087266;23;20380;-87
2022/03/30 19:08:57;;;;;;;;;;;;;;;;;;;;;
